This is the latest recevied weather packets stored in our database for station/object WS2Z. If no packets are shown the sender has not sent any weather packets the latest 10 day(s).
| Time | Temp. | Humidity | Pressure | Rain* | Wind** | Luminosity | Snow |
|---|---|---|---|---|---|---|---|
| 1777761725 | 28.33° C | 79% | 1012.2 hPa | 0 mm | - | 70 W/m² | - |
| 1777761422 | 28.33° C | 78% | 1012.1 hPa | 0 mm | - | 72 W/m² | - |
| 1777761121 | 28.33° C | 78% | 1012.1 hPa | 0 mm | - | 84 W/m² | - |
| 1777760818 | 28.33° C | 77% | 1012 hPa | 0 mm | - | 83 W/m² | - |
| 1777760514 | 28.89° C | 76% | 1011.9 hPa | 0 mm | - | 97 W/m² | - |
| 1777760210 | 28.89° C | 75% | 1011.9 hPa | 0 mm | - | 138 W/m² | - |
| 1777759907 | 28.89° C | 74% | 1012 hPa | 0 mm | - | 206 W/m² | - |
| 1777759603 | 28.89° C | 73% | 1012.1 hPa | 0 mm | - | 205 W/m² | - |
| 1777759299 | 28.89° C | 73% | 1011.8 hPa | 0 mm | - | 135 W/m² | - |
| 1777758997 | 28.33° C | 73% | 1011.8 hPa | 0 mm | - | 99 W/m² | - |
| 1777758693 | 28.89° C | 73% | 1012 hPa | 0 mm | - | 106 W/m² | - |
| 1777758391 | 28.89° C | 71% | 1011.8 hPa | 0 mm | - | 91 W/m² | - |
| 1777758088 | 29.44° C | 69% | 1011.7 hPa | 0 mm | - | 65 W/m² | - |
| 1777757785 | 30.56° C | 66% | 1011.7 hPa | 0 mm | - | 129 W/m² | - |
| 1777757482 | 31.11° C | 65% | 1011.6 hPa | 0 mm | - | 251 W/m² | - |
| 1777757181 | 30.56° C | 65% | 1011.4 hPa | 0 mm | - | 353 W/m² | - |
| 1777756879 | 31.11° C | 63% | 1011.8 hPa | 0 mm | - | 379 W/m² | - |
| 1777756574 | 31.11° C | 63% | 1011.6 hPa | 0 mm | - | 290 W/m² | - |
| 1777756272 | 30.56° C | 65% | 1011.5 hPa | 0 mm | - | 449 W/m² | - |
| 1777755969 | 30.56° C | 65% | 1011.7 hPa | 0 mm | - | 339 W/m² | - |
| 1777755666 | 30.56° C | 66% | 1011.4 hPa | 0 mm | - | 284 W/m² | - |
| 1777755362 | 31.11° C | 62% | 1011.6 hPa | 0 mm | - | 495 W/m² | - |
| 1777755059 | 31.11° C | 62% | 1011.8 hPa | 0 mm | - | 487 W/m² | - |
| 1777754756 | 31.11° C | 62% | 1011.6 hPa | 0 mm | - | 506 W/m² | - |
| 1777754454 | 31.11° C | 61% | 1011.4 hPa | 0 mm | - | 516 W/m² | - |
* Rain latest hour (hover to see other rain measurements)
** Current wind speed in m/s (hover to see current wind gust speed)